createdAt,value
2022-10-19T00:01:10.861Z,9.48
2022-10-19T00:03:39.075Z,7.85
2022-10-19T00:06:18.370Z,7.82
2022-10-19T00:08:45.947Z,5.97
2022-10-19T00:11:13.700Z,6.07
2022-10-19T00:13:40.893Z,9.15
2022-10-19T00:16:14.063Z,7.05
2022-10-19T00:18:43.474Z,8.10
2022-10-19T00:21:12.699Z,4.93
2022-10-19T00:23:40.067Z,8.90
2022-10-19T00:26:07.568Z,6.43
2022-10-19T00:28:34.783Z,5.93
2022-10-19T00:31:06.527Z,6.32
2022-10-19T00:33:34.032Z,5.65
2022-10-19T00:36:01.460Z,7.68
2022-10-19T00:38:28.629Z,6.05
2022-10-19T00:40:55.588Z,7.65
2022-10-19T00:43:26.734Z,6.93
2022-10-19T00:45:53.990Z,5.60
2022-10-19T00:48:30.515Z,5.28
2022-10-19T00:50:59.761Z,9.88
2022-10-19T00:53:29.421Z,6.50
2022-10-19T00:55:57.575Z,8.15
2022-10-19T00:58:24.619Z,7.55
2022-10-19T01:00:51.636Z,7.70
2022-10-19T01:03:18.741Z,6.00
2022-10-19T01:05:45.945Z,6.10
2022-10-19T01:08:13.735Z,5.53
2022-10-19T01:10:56.167Z,7.85
2022-10-19T01:13:36.003Z,7.40
2022-10-19T01:16:42.701Z,6.43
2022-10-19T01:19:34.282Z,5.93
2022-10-19T01:22:25.806Z,6.40
2022-10-19T01:25:14.487Z,7.20
2022-10-19T01:28:00.485Z,6.55
2022-10-19T01:30:33.378Z,7.90
2022-10-19T01:33:24.921Z,6.32
2022-10-19T01:36:05.339Z,7.05
2022-10-19T01:38:55.882Z,5.68
2022-10-19T01:41:34.801Z,7.43
2022-10-19T01:44:20.697Z,5.88
2022-10-19T01:46:55.071Z,5.82
2022-10-19T01:50:07.262Z,6.45
2022-10-19T01:52:35.717Z,5.35
2022-10-19T01:55:04.625Z,6.32
2022-10-19T01:57:40.131Z,5.03
2022-10-19T02:00:10.987Z,6.82
2022-10-19T02:02:44.948Z,4.70
2022-10-19T02:05:13.432Z,5.15
2022-10-19T02:07:44.309Z,5.72
2022-10-19T02:10:11.624Z,5.25
2022-10-19T02:12:41.270Z,4.95
2022-10-19T02:15:16.971Z,5.82
2022-10-19T02:17:50.651Z,4.50
2022-10-19T02:20:18.491Z,5.85
2022-10-19T02:22:45.608Z,6.97
2022-10-19T02:25:13.404Z,5.85
2022-10-19T02:27:44.206Z,6.13
2022-10-19T02:30:17.175Z,5.93
2022-10-19T02:32:44.742Z,5.47
2022-10-19T02:35:14.718Z,7.03
2022-10-19T02:37:42.344Z,6.50
2022-10-19T02:40:10.552Z,10.20
2022-10-19T02:42:48.227Z,6.57
2022-10-19T02:45:21.877Z,6.55
2022-10-19T02:47:58.402Z,6.40
2022-10-19T02:50:25.690Z,6.97
2022-10-19T02:52:52.644Z,6.13
2022-10-19T02:55:19.605Z,7.03
2022-10-19T02:57:46.633Z,5.30
2022-10-19T03:00:13.662Z,5.90
2022-10-19T03:02:40.674Z,4.63
2022-10-19T03:05:08.630Z,4.53
2022-10-19T03:07:36.451Z,3.55
2022-10-19T03:10:04.319Z,6.05
2022-10-19T03:12:31.354Z,3.85
2022-10-19T03:14:58.339Z,3.85
2022-10-19T03:17:25.250Z,5.70
2022-10-19T03:19:52.159Z,3.83
2022-10-19T03:22:19.123Z,7.40
2022-10-19T03:24:46.200Z,6.82
2022-10-19T03:27:13.178Z,4.40
2022-10-19T03:29:40.202Z,4.80
2022-10-19T03:32:07.320Z,9.05
2022-10-19T03:34:34.355Z,6.68
2022-10-19T03:37:01.396Z,8.30
2022-10-19T03:39:28.371Z,5.55
2022-10-19T03:41:55.284Z,5.05
2022-10-19T03:44:22.308Z,5.03
2022-10-19T03:46:49.290Z,5.38
2022-10-19T03:49:16.358Z,4.65
2022-10-19T03:51:43.383Z,5.13
2022-10-19T03:54:15.961Z,4.80
2022-10-19T03:56:43.097Z,7.57
2022-10-19T03:59:13.694Z,4.40
2022-10-19T04:01:43.140Z,4.38
2022-10-19T04:04:13.128Z,5.25
2022-10-19T04:06:42.351Z,3.95
2022-10-19T04:09:12.952Z,4.63
2022-10-19T04:11:40.331Z,4.93
2022-10-19T04:16:36.337Z,4.97
2022-10-19T04:19:03.312Z,6.82
2022-10-19T04:21:36.190Z,5.22
2022-10-19T04:24:08.986Z,4.20
2022-10-19T04:26:42.601Z,5.63
2022-10-19T04:29:10.673Z,6.20
2022-10-19T04:31:38.482Z,8.30
2022-10-19T04:34:06.556Z,7.15
2022-10-19T04:36:34.086Z,8.65
2022-10-19T04:39:05.379Z,8.65
2022-10-19T04:41:35.389Z,8.48
2022-10-19T04:44:04.251Z,10.18
2022-10-19T04:46:31.338Z,9.63
2022-10-19T04:48:59.885Z,10.15
2022-10-19T04:51:27.804Z,9.65
2022-10-19T04:53:59.392Z,7.70
2022-10-19T04:56:28.263Z,10.02
2022-10-19T04:58:59.761Z,6.65
2022-10-19T05:01:28.441Z,6.60
2022-10-19T05:04:00.736Z,6.10
2022-10-19T05:06:28.919Z,7.18
2022-10-19T05:08:56.555Z,6.88
2022-10-19T05:11:23.947Z,8.57
2022-10-19T05:13:51.350Z,6.57
2022-10-19T05:16:21.439Z,7.25
2022-10-19T05:18:58.786Z,7.10
2022-10-19T05:21:27.836Z,7.60
2022-10-19T05:23:56.401Z,7.60
2022-10-19T05:26:25.866Z,7.88
2022-10-19T05:28:56.853Z,7.57
2022-10-19T05:31:27.132Z,7.55
2022-10-19T05:33:56.439Z,9.48
2022-10-19T05:36:32.408Z,10.10
2022-10-19T05:39:02.514Z,9.32
2022-10-19T05:41:29.644Z,6.78
2022-10-19T05:43:59.263Z,7.50
2022-10-19T05:46:28.679Z,6.25
2022-10-19T05:48:57.582Z,6.82
2022-10-19T05:51:26.656Z,8.02
2022-10-19T05:53:54.828Z,6.95
2022-10-19T05:56:24.625Z,6.65
2022-10-19T05:58:51.690Z,7.60
2022-10-19T06:01:20.306Z,6.55
2022-10-19T06:03:50.957Z,6.47
2022-10-19T06:06:17.952Z,7.82
2022-10-19T06:08:45.437Z,6.97
2022-10-19T06:11:14.797Z,8.65
2022-10-19T06:13:44.250Z,7.45
2022-10-19T06:16:12.902Z,9.65
2022-10-19T06:18:40.659Z,7.78
2022-10-19T06:21:11.287Z,8.70
2022-10-19T06:23:38.375Z,6.13
2022-10-19T06:26:11.618Z,7.43
2022-10-19T06:28:40.596Z,7.50
2022-10-19T06:31:09.511Z,6.60
2022-10-19T06:33:36.882Z,7.03
2022-10-19T06:36:16.037Z,6.53
2022-10-19T06:38:43.490Z,7.57
2022-10-19T06:41:11.545Z,6.20
2022-10-19T06:43:39.925Z,9.07
2022-10-19T06:46:11.204Z,8.45
2022-10-19T06:48:38.795Z,6.57
2022-10-19T06:51:07.642Z,7.40
2022-10-19T06:53:35.946Z,8.60
2022-10-19T06:56:05.400Z,9.52
2022-10-19T06:58:36.493Z,7.13
2022-10-19T07:01:04.404Z,7.40
2022-10-19T07:03:31.457Z,8.35
2022-10-19T07:06:01.050Z,6.38
2022-10-19T07:08:29.744Z,7.95
2022-10-19T07:10:58.812Z,7.22
2022-10-19T07:13:27.361Z,7.25
2022-10-19T07:16:03.703Z,7.72
2022-10-19T07:18:30.672Z,8.02
2022-10-19T07:20:59.680Z,12.20
2022-10-19T07:23:28.983Z,7.68
2022-10-19T07:26:01.754Z,7.45
2022-10-19T07:28:30.162Z,11.18
2022-10-19T07:30:57.388Z,7.72
2022-10-19T07:33:24.875Z,9.35
2022-10-19T07:35:59.209Z,11.30
2022-10-19T07:38:26.061Z,9.02
2022-10-19T07:41:04.129Z,10.88
2022-10-19T07:43:31.271Z,11.68
2022-10-19T07:46:10.769Z,9.95
2022-10-19T07:48:37.836Z,12.10
2022-10-19T07:51:07.486Z,10.45
2022-10-19T07:53:35.484Z,13.38
2022-10-19T07:56:08.553Z,10.05
2022-10-19T07:58:36.810Z,10.32
2022-10-19T08:01:21.166Z,13.05
2022-10-19T08:06:37.556Z,11.63
2022-10-19T08:09:05.761Z,11.20
2022-10-19T08:11:34.985Z,10.40
2022-10-19T08:14:05.506Z,10.65
2022-10-19T08:16:39.523Z,9.48
2022-10-19T08:19:12.557Z,10.50
2022-10-19T08:21:42.694Z,12.82
2022-10-19T08:24:11.491Z,9.35
2022-10-19T08:26:39.293Z,10.10
2022-10-19T08:29:07.752Z,8.68
2022-10-19T08:31:34.997Z,8.60
2022-10-19T08:34:02.555Z,9.38
2022-10-19T08:36:31.466Z,10.90
2022-10-19T08:38:59.304Z,8.43
2022-10-19T08:41:41.336Z,8.73
2022-10-19T08:44:17.478Z,8.43
2022-10-19T08:46:50.554Z,10.52
2022-10-19T08:49:21.659Z,9.35
2022-10-19T08:51:55.824Z,15.15
2022-10-19T08:54:24.468Z,12.02
2022-10-19T08:57:02.630Z,11.93
2022-10-19T09:00:11.212Z,9.15
2022-10-19T09:05:27.857Z,11.73
2022-10-19T09:07:55.545Z,9.88
2022-10-19T09:10:26.770Z,9.90
2022-10-19T09:13:02.022Z,12.13
2022-10-19T09:15:42.694Z,12.07
2022-10-19T09:18:30.335Z,10.75
2022-10-19T09:23:37.436Z,7.90
2022-10-19T09:26:11.168Z,8.85
2022-10-19T09:28:44.673Z,9.65
2022-10-19T09:31:17.243Z,11.20
2022-10-19T09:33:50.491Z,11.88
2022-10-19T09:36:22.824Z,9.63
2022-10-19T09:41:23.855Z,8.48
2022-10-19T09:43:55.737Z,8.63
2022-10-19T09:46:52.345Z,8.77
2022-10-19T09:49:45.066Z,8.88
2022-10-19T09:52:38.297Z,7.10
2022-10-19T09:55:28.729Z,7.00
2022-10-19T09:58:15.722Z,6.55
2022-10-19T10:00:45.811Z,9.20
2022-10-19T10:03:29.511Z,12.00
2022-10-19T10:06:08.397Z,10.32
2022-10-19T10:08:44.877Z,8.85
2022-10-19T10:11:15.411Z,8.40
2022-10-19T10:13:50.326Z,8.13
2022-10-19T10:16:21.236Z,8.15
2022-10-19T10:18:55.880Z,6.35
2022-10-19T10:21:26.441Z,6.40
2022-10-19T10:24:06.118Z,7.00
2022-10-19T10:26:43.212Z,8.93
2022-10-19T10:29:28.844Z,8.38
2022-10-19T10:32:07.953Z,10.38
2022-10-19T10:34:50.997Z,10.93
2022-10-19T10:37:24.641Z,10.38
2022-10-19T10:39:59.181Z,10.75
2022-10-19T10:42:41.883Z,10.40
2022-10-19T10:45:39.791Z,7.57
2022-10-19T10:48:28.673Z,8.15
2022-10-19T10:50:57.557Z,7.47
2022-10-19T10:53:40.692Z,8.52
2022-10-19T10:56:24.879Z,9.18
2022-10-19T10:58:58.098Z,7.15
2022-10-19T11:01:30.575Z,8.38
2022-10-19T11:04:04.658Z,7.40
2022-10-19T11:06:38.534Z,8.57
2022-10-19T11:09:16.144Z,7.73
2022-10-19T11:11:48.327Z,7.75
2022-10-19T11:14:30.794Z,8.07
2022-10-19T11:17:07.400Z,7.82
2022-10-19T11:19:39.651Z,7.57
2022-10-19T11:22:28.804Z,7.28
2022-10-19T11:25:07.738Z,7.95
2022-10-19T11:27:52.945Z,6.10
2022-10-19T11:30:22.494Z,8.93
2022-10-19T11:32:49.367Z,8.18
2022-10-19T11:35:34.662Z,6.90
2022-10-19T11:38:22.590Z,9.23
2022-10-19T11:41:18.295Z,7.22
2022-10-19T11:44:06.184Z,7.28
2022-10-19T11:47:08.876Z,4.93
2022-10-19T11:49:46.644Z,6.07
2022-10-19T11:52:20.322Z,6.28
2022-10-19T11:55:05.954Z,7.85
2022-10-19T11:57:37.704Z,7.15
2022-10-19T12:00:27.200Z,6.88
2022-10-19T12:03:25.293Z,8.05
2022-10-19T12:06:04.661Z,10.05
2022-10-19T12:08:37.984Z,9.48
2022-10-19T12:11:42.048Z,9.43
2022-10-19T12:14:17.983Z,8.75
2022-10-19T12:16:50.854Z,7.95
2022-10-19T12:19:25.048Z,7.78
2022-10-19T12:21:58.739Z,8.50
2022-10-19T12:24:28.657Z,8.10
2022-10-19T12:26:56.430Z,8.77
2022-10-19T12:29:27.810Z,11.02
2022-10-19T12:31:56.574Z,9.10
2022-10-19T12:34:35.587Z,10.52
2022-10-19T12:37:03.421Z,11.60
2022-10-19T12:40:19.594Z,11.73
2022-10-19T12:43:17.372Z,11.32
2022-10-19T12:46:06.958Z,12.73
2022-10-19T12:48:36.541Z,8.23
2022-10-19T12:51:07.666Z,8.45
2022-10-19T12:53:40.873Z,7.40
2022-10-19T12:56:17.567Z,9.98
2022-10-19T12:58:46.729Z,8.05
2022-10-19T13:01:21.241Z,9.32
2022-10-19T13:03:51.426Z,8.70
2022-10-19T13:06:32.240Z,8.75
2022-10-19T13:09:02.924Z,10.55
2022-10-19T13:11:30.457Z,7.03
2022-10-19T13:14:06.820Z,13.95
2022-10-19T13:16:41.051Z,10.82
2022-10-19T13:19:14.174Z,7.88
2022-10-19T13:21:49.070Z,9.00
2022-10-19T13:24:25.020Z,6.85
2022-10-19T13:27:18.483Z,8.45
2022-10-19T13:29:45.618Z,6.93
2022-10-19T13:32:49.581Z,8.35
2022-10-19T13:35:31.409Z,9.02
2022-10-19T13:38:16.719Z,7.00
2022-10-19T13:40:49.847Z,7.93
2022-10-19T13:43:26.540Z,6.78
2022-10-19T13:46:01.156Z,6.60
2022-10-19T13:48:42.875Z,8.43
2022-10-19T13:51:28.681Z,7.32
2022-10-19T13:54:18.582Z,6.07
2022-10-19T13:57:11.012Z,6.78
2022-10-19T14:00:07.151Z,6.97
2022-10-19T14:02:43.902Z,7.13
2022-10-19T14:05:46.341Z,6.13
2022-10-19T14:08:50.800Z,8.65
2022-10-19T14:11:21.477Z,6.93
2022-10-19T14:14:21.576Z,8.18
2022-10-19T14:16:54.501Z,6.20
2022-10-19T14:19:28.203Z,6.88
2022-10-19T14:22:16.413Z,7.13
2022-10-19T14:24:43.524Z,8.60
2022-10-19T14:27:19.695Z,9.02
2022-10-19T14:29:49.450Z,8.63
2022-10-19T14:32:18.377Z,13.43
2022-10-19T14:34:47.972Z,9.55
2022-10-19T14:37:27.060Z,10.13
2022-10-19T14:40:07.785Z,9.13
2022-10-19T14:42:43.305Z,9.05
2022-10-19T14:45:23.395Z,7.95
2022-10-19T14:48:07.679Z,11.75
2022-10-19T14:50:49.008Z,9.07
2022-10-19T14:53:46.040Z,8.30
2022-10-19T14:56:19.001Z,10.18
2022-10-19T14:58:53.477Z,7.95
2022-10-19T15:01:21.504Z,7.55
2022-10-19T15:03:50.032Z,7.82
2022-10-19T15:06:21.674Z,9.48
2022-10-19T15:09:05.281Z,8.55
2022-10-19T15:11:38.656Z,7.53
2022-10-19T15:14:14.429Z,9.40
2022-10-19T15:16:43.482Z,7.47
2022-10-19T15:19:23.577Z,8.30
2022-10-19T15:22:17.609Z,7.97
2022-10-19T15:25:02.878Z,10.48
2022-10-19T15:27:39.373Z,8.65
2022-10-19T15:30:24.607Z,8.47
2022-10-19T15:33:03.120Z,8.23
2022-10-19T15:35:33.144Z,9.70
2022-10-19T15:38:05.691Z,8.68
2022-10-19T15:40:37.925Z,7.78
2022-10-19T15:43:24.908Z,7.28
2022-10-19T15:46:06.932Z,8.93
2022-10-19T15:48:51.138Z,7.07
2022-10-19T15:51:23.705Z,6.90
2022-10-19T15:54:02.383Z,6.43
2022-10-19T15:56:32.390Z,5.90
2022-10-19T15:59:01.494Z,5.68
2022-10-19T16:01:31.191Z,7.18
2022-10-19T16:03:58.762Z,6.45
2022-10-19T16:06:29.384Z,5.53
2022-10-19T16:08:57.409Z,7.05
2022-10-19T16:11:25.419Z,6.78
2022-10-19T16:13:52.521Z,7.30
2022-10-19T16:16:23.708Z,7.28
2022-10-19T16:18:51.293Z,7.32
2022-10-19T16:21:23.055Z,6.97
2022-10-19T16:23:50.074Z,9.65
2022-10-19T16:26:18.330Z,7.68
2022-10-19T16:28:45.904Z,8.45
2022-10-19T16:31:12.979Z,9.10
2022-10-19T16:33:40.059Z,8.70
2022-10-19T16:36:08.271Z,7.32
2022-10-19T16:38:35.976Z,5.47
2022-10-19T16:41:05.346Z,7.40
2022-10-19T16:43:32.546Z,4.78
2022-10-19T16:46:00.085Z,5.88
2022-10-19T16:48:27.618Z,7.07
2022-10-19T16:51:23.635Z,5.50
2022-10-19T16:53:57.368Z,7.07
2022-10-19T16:56:27.472Z,6.43
2022-10-19T16:58:56.010Z,5.93
2022-10-19T17:01:23.233Z,5.93
2022-10-19T17:03:50.450Z,6.35
2022-10-19T17:06:18.651Z,9.40
2022-10-19T17:09:30.247Z,5.35
2022-10-19T17:11:36.425Z,4.65
2022-10-19T17:14:07.152Z,6.70
2022-10-19T17:16:36.225Z,4.50
2022-10-19T17:19:04.858Z,4.68
2022-10-19T17:21:34.688Z,4.75
2022-10-19T17:24:03.737Z,6.32
2022-10-19T17:26:40.137Z,5.28
2022-10-19T17:29:07.751Z,4.45
2022-10-19T17:31:36.551Z,4.97
2022-10-19T17:34:04.409Z,5.35
2022-10-19T17:36:33.839Z,6.38
2022-10-19T17:39:04.699Z,5.63
2022-10-19T17:41:32.183Z,5.07
2022-10-19T17:43:59.706Z,5.43
2022-10-19T17:46:30.348Z,4.45
2022-10-19T17:48:58.496Z,5.05
2022-10-19T17:51:29.702Z,5.95
2022-10-19T17:54:03.068Z,5.65
2022-10-19T17:56:30.709Z,7.75
2022-10-19T17:58:58.685Z,4.22
2022-10-19T18:01:26.823Z,4.55
2022-10-19T18:03:54.051Z,5.15
2022-10-19T18:06:25.153Z,4.85
2022-10-19T18:08:55.261Z,4.95
2022-10-19T18:11:26.333Z,4.55
2022-10-19T18:13:56.590Z,4.80
2022-10-19T18:16:27.532Z,6.15
2022-10-19T18:18:57.402Z,4.68
2022-10-19T18:21:34.193Z,4.65
2022-10-19T18:24:02.597Z,6.38
2022-10-19T18:26:31.905Z,5.07
2022-10-19T18:29:00.484Z,4.50
2022-10-19T18:31:30.898Z,5.28
2022-10-19T18:34:03.141Z,5.85
2022-10-19T18:36:30.989Z,4.20
2022-10-19T18:39:00.648Z,4.45
2022-10-19T18:41:28.450Z,5.07
2022-10-19T18:43:58.426Z,6.07
2022-10-19T18:46:26.821Z,6.05
2022-10-19T18:48:54.240Z,4.40
2022-10-19T18:51:23.134Z,8.88
2022-10-19T18:53:50.515Z,5.22
2022-10-19T18:56:22.556Z,6.40
2022-10-19T18:58:49.981Z,4.88
2022-10-19T19:01:21.058Z,8.90
2022-10-19T19:03:52.537Z,4.15
2022-10-19T19:06:20.783Z,5.15
2022-10-19T19:08:48.061Z,4.47
2022-10-19T19:11:23.598Z,3.50
2022-10-19T19:14:10.687Z,4.50
2022-10-19T19:16:40.057Z,5.78
2022-10-19T19:19:10.448Z,5.07
2022-10-19T19:21:39.093Z,6.80
2022-10-19T19:24:07.126Z,4.40
2022-10-19T19:26:38.956Z,4.40
2022-10-19T19:29:06.017Z,3.90
2022-10-19T19:31:33.100Z,4.32
2022-10-19T19:34:01.446Z,4.00
2022-10-19T19:36:29.126Z,3.92
2022-10-19T19:38:57.568Z,3.78
2022-10-19T19:41:24.811Z,6.50
2022-10-19T19:43:55.558Z,3.92
2022-10-19T19:46:22.532Z,3.67
2022-10-19T19:48:49.795Z,5.03
2022-10-19T19:51:19.795Z,4.45
2022-10-19T19:53:49.226Z,3.40
2022-10-19T19:56:18.065Z,4.25
2022-10-19T19:58:45.613Z,4.25
2022-10-19T20:01:15.986Z,5.13
2022-10-19T20:03:43.739Z,3.40
2022-10-19T20:06:10.996Z,3.28
2022-10-19T20:08:38.698Z,2.92
2022-10-19T20:11:08.964Z,3.60
2022-10-19T20:13:36.562Z,2.45
2022-10-19T20:16:12.902Z,3.33
2022-10-19T20:18:41.392Z,3.53
2022-10-19T20:21:10.263Z,3.63
2022-10-19T20:23:39.919Z,5.10
2022-10-19T20:26:15.582Z,3.60
2022-10-19T20:28:42.830Z,4.53
2022-10-19T20:31:11.583Z,5.57
2022-10-19T20:33:40.124Z,4.35
2022-10-19T20:36:13.484Z,2.95
2022-10-19T20:38:45.244Z,3.78
2022-10-19T20:41:12.230Z,4.78
2022-10-19T20:43:39.318Z,3.83
2022-10-19T20:46:09.014Z,3.38
2022-10-19T20:48:35.975Z,4.20
2022-10-19T20:51:16.171Z,4.75
2022-10-19T20:53:46.486Z,4.90
2022-10-19T20:56:16.364Z,6.05
2022-10-19T20:58:45.105Z,6.82
2022-10-19T21:01:16.169Z,4.40
2022-10-19T21:03:57.740Z,4.90
2022-10-19T21:06:26.290Z,5.70
2022-10-19T21:08:53.395Z,5.90
2022-10-19T21:11:23.800Z,4.10
2022-10-19T21:13:57.039Z,5.68
2022-10-19T21:16:27.629Z,5.75
2022-10-19T21:18:55.022Z,5.78
2022-10-19T21:21:25.109Z,5.10
2022-10-19T21:23:56.614Z,3.08
2022-10-19T21:26:28.429Z,3.45
2022-10-19T21:28:56.002Z,4.18
2022-10-19T21:31:24.991Z,3.78
2022-10-19T21:33:53.051Z,3.92
2022-10-19T21:36:21.733Z,5.78
2022-10-19T21:38:48.932Z,3.65
2022-10-19T21:41:20.869Z,4.03
2022-10-19T21:43:50.912Z,5.07
2022-10-19T21:46:20.545Z,4.68
2022-10-19T21:48:48.318Z,5.63
2022-10-19T21:51:40.134Z,3.95
2022-10-19T21:56:46.567Z,5.22
2022-10-19T21:59:14.406Z,7.05
2022-10-19T22:01:41.914Z,6.55
2022-10-19T22:04:15.645Z,4.68
2022-10-19T22:06:43.248Z,3.42
2022-10-19T22:09:16.435Z,5.07
2022-10-19T22:11:44.079Z,4.63
2022-10-19T22:14:13.980Z,4.90
2022-10-19T22:16:41.840Z,6.50
2022-10-19T22:19:12.819Z,6.28
2022-10-19T22:21:40.292Z,4.53
2022-10-19T22:24:12.360Z,4.68
2022-10-19T22:26:45.330Z,4.50
2022-10-19T22:29:12.847Z,4.70
2022-10-19T22:31:40.135Z,4.95
2022-10-19T22:34:10.151Z,4.65
2022-10-19T22:36:38.070Z,5.70
2022-10-19T22:39:07.168Z,4.63
2022-10-19T22:41:34.169Z,5.93
2022-10-19T22:44:01.375Z,5.03
2022-10-19T22:46:28.507Z,5.65
2022-10-19T22:48:55.636Z,4.80
2022-10-19T22:51:22.709Z,4.75
2022-10-19T22:53:49.754Z,5.80
2022-10-19T22:56:16.918Z,5.93
2022-10-19T22:58:43.896Z,6.07
2022-10-19T23:01:13.327Z,5.07
2022-10-19T23:03:40.501Z,5.50
2022-10-19T23:06:09.198Z,4.45
2022-10-19T23:08:36.559Z,5.82
2022-10-19T23:11:03.808Z,6.15
2022-10-19T23:13:30.930Z,7.20
2022-10-19T23:15:57.899Z,6.63
2022-10-19T23:18:25.016Z,6.05
2022-10-19T23:21:00.341Z,4.75
2022-10-19T23:23:28.489Z,5.07
2022-10-19T23:25:59.881Z,4.28
2022-10-19T23:28:27.225Z,4.55
2022-10-19T23:30:57.034Z,5.25
2022-10-19T23:33:27.319Z,4.10
2022-10-19T23:35:54.399Z,4.90
2022-10-19T23:38:21.469Z,7.07
2022-10-19T23:40:48.376Z,7.03
2022-10-19T23:43:15.419Z,7.38
2022-10-19T23:45:44.522Z,4.97
2022-10-19T23:48:11.663Z,5.70
2022-10-19T23:50:38.726Z,5.72
2022-10-19T23:53:05.758Z,6.22
2022-10-19T23:55:32.736Z,4.57
2022-10-19T23:57:59.690Z,4.25
